createdAt,value
2016-11-02T00:00:21.756Z,76.02
2016-11-02T00:01:35.319Z,76.7
2016-11-02T00:02:48.954Z,76.02
2016-11-02T00:04:03.093Z,77.37
2016-11-02T00:05:16.657Z,76.31
2016-11-02T00:06:29.745Z,76.99
2016-11-02T00:07:43.434Z,78.05
2016-11-02T00:08:57.036Z,78.25
2016-11-02T00:10:10.857Z,78.83
2016-11-02T00:11:24.478Z,79.6
2016-11-02T00:12:38.291Z,78.83
2016-11-02T00:13:52.352Z,78.54
2016-11-02T00:15:05.909Z,80.47
2016-11-02T00:16:19.057Z,80.44
2016-11-02T00:17:32.651Z,80.73
2016-11-02T00:18:46.562Z,81.5
2016-11-02T00:20:00.259Z,81.6
2016-11-02T00:21:13.811Z,81.7
2016-11-02T00:22:27.570Z,81.79
2016-11-02T00:23:41.228Z,81.98
2016-11-02T00:24:55.016Z,81.89
2016-11-02T00:26:08.673Z,81.85
2016-11-02T00:27:22.737Z,81.46
2016-11-02T00:28:36.778Z,82.08
2016-11-02T00:29:50.616Z,80.92
2016-11-02T00:31:04.393Z,81.65
2016-11-02T00:32:18.249Z,81.56
2016-11-02T00:33:31.890Z,80.69
2016-11-02T00:34:45.598Z,81.46
2016-11-02T00:35:59.403Z,81.27
2016-11-02T00:37:13.233Z,81.17
2016-11-02T00:38:26.792Z,80.88
2016-11-02T00:39:40.636Z,80.2
2016-11-02T00:40:54.299Z,80.88
2016-11-02T00:42:07.995Z,81.07
2016-11-02T00:43:21.679Z,80.79
2016-11-02T00:44:35.580Z,80.88
2016-11-02T00:45:49.416Z,80.3
2016-11-02T00:47:03.242Z,80.3
2016-11-02T00:48:16.881Z,80.3
2016-11-02T00:49:30.558Z,80.88
2016-11-02T00:50:44.660Z,80.01
2016-11-02T00:51:58.501Z,80.11
2016-11-02T00:53:12.233Z,80.2
2016-11-02T00:54:25.517Z,80.3
2016-11-02T00:55:39.184Z,80.88
2016-11-02T00:56:52.926Z,80.69
2016-11-02T00:58:06.723Z,81.17
2016-11-02T00:59:20.663Z,81.07
2016-11-02T01:00:34.377Z,80.88
2016-11-02T01:01:48.274Z,81.27
2016-11-02T01:03:01.922Z,80.79
2016-11-02T01:04:15.589Z,80.49
2016-11-02T01:05:29.117Z,80.69
2016-11-02T01:06:42.858Z,80.2
2016-11-02T01:07:56.557Z,80.07
2016-11-02T01:09:10.285Z,80.11
2016-11-02T01:10:24.190Z,80.79
2016-11-02T01:11:37.796Z,80.16
2016-11-02T01:12:51.761Z,80.26
2016-11-02T01:14:04.596Z,80.11
2016-11-02T01:15:18.524Z,79.97
2016-11-02T01:16:32.345Z,79.39
2016-11-02T01:17:45.975Z,79.78
2016-11-02T01:18:59.447Z,80.16
2016-11-02T01:20:13.437Z,79.87
2016-11-02T01:21:27.429Z,80.26
2016-11-02T01:22:41.287Z,79.39
2016-11-02T01:23:55.074Z,80.07
2016-11-02T01:25:08.324Z,79.49
2016-11-02T01:26:21.899Z,79.68
2016-11-02T01:27:35.479Z,79.68
2016-11-02T01:28:49.267Z,79.68
2016-11-02T01:30:03.055Z,79.49
2016-11-02T01:31:16.714Z,79.78
2016-11-02T01:32:30.502Z,79.49
2016-11-02T01:33:44.637Z,79.68
2016-11-02T01:34:58.468Z,79.49
2016-11-02T01:36:13.290Z,79.68
2016-11-02T01:37:27.020Z,80.16
2016-11-02T01:38:40.780Z,80.07
2016-11-02T01:39:54.768Z,80.07
2016-11-02T01:41:08.159Z,80.07
2016-11-02T01:42:22.139Z,80.36
2016-11-02T01:43:35.848Z,80.55
2016-11-02T01:44:49.618Z,80.55
2016-11-02T01:46:03.509Z,80.74
2016-11-02T01:47:17.179Z,81.13
2016-11-02T01:48:30.939Z,81.04
2016-11-02T01:49:44.795Z,80.65
2016-11-02T01:50:58.511Z,80.8
2016-11-02T01:52:12.211Z,80.8
2016-11-02T01:53:25.851Z,80.84
2016-11-02T01:54:38.938Z,81.09
2016-11-02T01:55:52.526Z,81.67
2016-11-02T01:57:07.879Z,81.71
2016-11-02T01:58:21.610Z,81.48
2016-11-02T01:59:35.237Z,81.57
2016-11-02T02:00:48.891Z,81.96
2016-11-02T02:02:02.447Z,81.71
2016-11-02T02:03:15.857Z,81.57
2016-11-02T02:04:28.990Z,81.67
2016-11-02T02:05:42.626Z,81.67
2016-11-02T02:06:56.982Z,81.96
2016-11-02T02:08:10.588Z,81.96
2016-11-02T02:09:24.521Z,81.57
2016-11-02T02:10:38.229Z,81.57
2016-11-02T02:11:52.504Z,82.06
2016-11-02T02:13:06.164Z,82.25
2016-11-02T02:14:19.794Z,81.57
2016-11-02T02:15:33.502Z,81.77
2016-11-02T02:16:47.260Z,81.57
2016-11-02T02:18:00.850Z,81.19
2016-11-02T02:19:14.739Z,80.8
2016-11-02T02:20:28.403Z,80.99
2016-11-02T02:21:41.971Z,81.38
2016-11-02T02:22:55.728Z,81.48
2016-11-02T02:24:09.394Z,80.99
2016-11-02T02:25:23.220Z,80.76
2016-11-02T02:26:37.048Z,81.09
2016-11-02T02:27:50.915Z,81.57
2016-11-02T02:29:04.227Z,81.67
2016-11-02T02:30:17.847Z,81.63
2016-11-02T02:31:31.588Z,82.4
2016-11-02T02:32:44.776Z,82.69
2016-11-02T02:33:58.657Z,82.4
2016-11-02T02:35:12.335Z,82.4
2016-11-02T02:36:26.040Z,83.27
2016-11-02T02:37:39.787Z,83.14
2016-11-02T02:38:53.454Z,82.6
2016-11-02T02:40:07.041Z,83.08
2016-11-02T02:41:20.930Z,83.18
2016-11-02T02:42:34.127Z,83.04
2016-11-02T02:43:47.764Z,83.23
2016-11-02T02:45:01.310Z,83.81
2016-11-02T02:46:14.944Z,83.42
2016-11-02T02:47:28.509Z,83.91
2016-11-02T02:48:42.029Z,84.3
2016-11-02T02:49:56.427Z,84.35
2016-11-02T02:51:10.347Z,84.48
2016-11-02T02:52:24.003Z,84.58
2016-11-02T02:53:37.388Z,84.44
2016-11-02T02:54:51.030Z,84.58
2016-11-02T02:56:04.793Z,84.44
2016-11-02T02:57:18.394Z,85.22
2016-11-02T02:58:31.988Z,84.93
2016-11-02T02:59:45.543Z,85.12
2016-11-02T03:00:59.379Z,84.44
2016-11-02T03:02:13.022Z,84.83
2016-11-02T03:03:26.761Z,84.64
2016-11-02T03:04:40.497Z,85.31
2016-11-02T03:05:54.367Z,85.22
2016-11-02T03:07:08.249Z,85.89
2016-11-02T03:08:21.858Z,85.89
2016-11-02T03:09:35.460Z,85.99
2016-11-02T03:10:49.053Z,86.38
2016-11-02T03:12:02.876Z,85.66
2016-11-02T03:13:16.565Z,86.08
2016-11-02T03:14:30.169Z,86.28
2016-11-02T03:15:43.762Z,85.31
2016-11-02T03:16:57.680Z,85.41
2016-11-02T03:18:11.212Z,85.6
2016-11-02T03:19:24.799Z,85.31
2016-11-02T03:20:38.402Z,85.6
2016-11-02T03:21:52.004Z,85.41
2016-11-02T03:23:05.591Z,85.6
2016-11-02T03:24:19.214Z,85.7
2016-11-02T03:25:32.815Z,86.18
2016-11-02T03:26:46.451Z,85.99
2016-11-02T03:28:00.012Z,85.89
2016-11-02T03:29:13.025Z,85.99
2016-11-02T03:30:26.630Z,86.57
2016-11-02T03:31:40.310Z,86.86
2016-11-02T03:32:53.891Z,87.01
2016-11-02T03:34:07.473Z,87.63
2016-11-02T03:35:21.088Z,87.88
2016-11-02T03:36:34.679Z,88.07
2016-11-02T03:37:48.263Z,88.75
2016-11-02T03:39:01.885Z,88.51
2016-11-02T03:40:15.541Z,88.45
2016-11-02T03:41:29.088Z,88.36
2016-11-02T03:42:42.692Z,88.17
2016-11-02T03:43:56.236Z,88.55
2016-11-02T03:45:09.259Z,88.45
2016-11-02T03:46:22.819Z,88.75
2016-11-02T03:47:36.548Z,88.55
2016-11-02T03:48:50.062Z,88.55
2016-11-02T03:50:03.639Z,88.75
2016-11-02T03:51:17.189Z,89.18
2016-11-02T03:52:30.760Z,89.03
2016-11-02T03:53:44.346Z,89.09
2016-11-02T03:54:57.984Z,89.23
2016-11-02T03:56:11.595Z,89.57
2016-11-02T03:57:25.243Z,89.51
2016-11-02T03:58:38.725Z,89.51
2016-11-02T03:59:52.316Z,89.51
2016-11-02T04:01:05.890Z,89.28
2016-11-02T04:02:19.413Z,89.51
2016-11-02T04:03:34.388Z,89.71
2016-11-02T04:04:48.082Z,89.23
2016-11-02T04:06:01.705Z,89.18
2016-11-02T04:07:15.344Z,89.42
2016-11-02T04:08:28.962Z,89.13
2016-11-02T04:09:42.516Z,89.71
2016-11-02T04:10:55.612Z,89.76
2016-11-02T04:12:09.269Z,89.37
2016-11-02T04:13:22.920Z,89.95
2016-11-02T04:14:36.544Z,90.09
2016-11-02T04:15:50.203Z,89.81
2016-11-02T04:17:03.831Z,89.9
2016-11-02T04:18:17.627Z,90.15
2016-11-02T04:19:30.986Z,90.63
2016-11-02T04:20:44.645Z,90.34
2016-11-02T04:21:58.237Z,90.34
2016-11-02T04:23:11.877Z,90.63
2016-11-02T04:24:25.511Z,90.34
2016-11-02T04:25:39.135Z,90.53
2016-11-02T04:26:52.755Z,91.3
2016-11-02T04:28:06.365Z,91.2
2016-11-02T04:29:19.993Z,91.3
2016-11-02T04:30:33.652Z,92.36
2016-11-02T04:31:47.273Z,92.22
2016-11-02T04:33:00.863Z,92.22
2016-11-02T04:34:13.451Z,92.13
2016-11-02T04:35:27.071Z,91.93
2016-11-02T04:36:40.663Z,91.74
2016-11-02T04:37:54.259Z,91.83
2016-11-02T04:39:07.920Z,92.13
2016-11-02T04:40:21.056Z,91.98
2016-11-02T04:41:34.664Z,91.93
2016-11-02T04:42:48.275Z,91.78
2016-11-02T04:44:01.904Z,91.88
2016-11-02T04:45:15.543Z,91.98
2016-11-02T04:46:29.116Z,92.08
2016-11-02T04:47:42.833Z,92.03
2016-11-02T04:48:56.435Z,91.93
2016-11-02T04:50:10.074Z,92.03
2016-11-02T04:51:23.999Z,92.32
2016-11-02T04:52:38.266Z,92.41
2016-11-02T04:53:51.258Z,92.13
2016-11-02T04:55:04.875Z,92.51
2016-11-02T04:56:18.535Z,92.36
2016-11-02T04:57:32.174Z,92.36
2016-11-02T04:58:45.815Z,92.13
2016-11-02T04:59:59.554Z,92.22
2016-11-02T05:01:13.486Z,92.17
2016-11-02T05:02:27.047Z,92.13
2016-11-02T05:03:40.632Z,92.65
2016-11-02T05:04:54.298Z,92.03
2016-11-02T05:06:07.900Z,91.93
2016-11-02T05:07:21.264Z,92.32
2016-11-02T05:08:34.897Z,92.41
2016-11-02T05:09:48.499Z,92.32
2016-11-02T05:11:02.059Z,92.13
2016-11-02T05:12:15.600Z,92.03
2016-11-02T05:13:29.259Z,92.13
2016-11-02T05:14:42.923Z,92.36
2016-11-02T05:15:56.295Z,92.22
2016-11-02T05:17:09.923Z,92.32
2016-11-02T05:18:23.545Z,92.22
2016-11-02T05:19:37.146Z,92.13
2016-11-02T05:20:50.301Z,92.22
2016-11-02T05:22:03.938Z,92.22
2016-11-02T05:23:17.125Z,92.32
2016-11-02T05:24:30.712Z,92.22
2016-11-02T05:25:44.280Z,92.03
2016-11-02T05:26:57.819Z,92.32
2016-11-02T05:28:10.600Z,92.22
2016-11-02T05:29:24.190Z,92.32
2016-11-02T05:30:37.774Z,92.41
2016-11-02T05:31:51.404Z,93.28
2016-11-02T05:33:05.030Z,93.43
2016-11-02T05:34:18.668Z,92.99
2016-11-02T05:36:58.736Z,92.51
2016-11-02T05:38:12.401Z,93.09
2016-11-02T05:39:25.723Z,92.32
2016-11-02T05:40:39.274Z,92.51
2016-11-02T05:41:52.796Z,92.71
2016-11-02T05:43:06.373Z,92.71
2016-11-02T05:44:19.994Z,92.71
2016-11-02T05:45:33.651Z,92.71
2016-11-02T05:46:47.188Z,92.71
2016-11-02T05:48:00.824Z,92.71
2016-11-02T05:49:13.939Z,92.9
2016-11-02T05:50:27.553Z,92.51
2016-11-02T05:51:40.617Z,92.41
2016-11-02T05:52:54.025Z,92.99
2016-11-02T05:54:07.631Z,94.39
2016-11-02T05:55:21.280Z,94.1
2016-11-02T05:56:34.923Z,94.1
2016-11-02T05:57:48.056Z,93.62
2016-11-02T05:59:01.117Z,93.57
2016-11-02T06:00:14.738Z,93.33
2016-11-02T06:01:28.770Z,93.24
2016-11-02T06:02:42.468Z,93.19
2016-11-02T06:03:56.077Z,93.33
2016-11-02T06:05:09.642Z,93.48
2016-11-02T06:06:23.365Z,93.57
2016-11-02T06:07:36.995Z,93.24
2016-11-02T06:08:50.834Z,93.28
2016-11-02T06:10:04.444Z,93.09
2016-11-02T06:11:18.082Z,93.14
2016-11-02T06:12:31.770Z,92.94
2016-11-02T06:13:45.324Z,93.43
2016-11-02T06:14:59.757Z,93.43
2016-11-02T06:16:13.575Z,93.43
2016-11-02T06:17:26.672Z,93.33
2016-11-02T06:18:39.946Z,93.48
2016-11-02T06:19:53.595Z,93.09
2016-11-02T06:21:07.169Z,92.94
2016-11-02T06:22:20.973Z,92.85
2016-11-02T06:23:34.644Z,92.41
2016-11-02T06:24:48.025Z,92.99
2016-11-02T06:26:01.630Z,93.04
2016-11-02T06:27:15.293Z,93.04
2016-11-02T06:28:28.357Z,92.8
2016-11-02T06:29:41.945Z,92.85
2016-11-02T06:30:55.570Z,92.51
2016-11-02T06:32:09.259Z,93.09
2016-11-02T06:33:22.861Z,93.52
2016-11-02T06:34:36.500Z,93.57
2016-11-02T06:35:50.141Z,92.9
2016-11-02T06:37:03.810Z,92.8
2016-11-02T06:38:16.955Z,92.94
2016-11-02T06:39:30.623Z,93.09
2016-11-02T06:40:44.266Z,93.04
2016-11-02T06:41:57.914Z,92.99
2016-11-02T06:43:11.492Z,93.19
2016-11-02T06:44:25.143Z,93.19
2016-11-02T06:45:38.507Z,93.28
2016-11-02T06:46:51.603Z,93.48
2016-11-02T06:48:05.214Z,93.14
2016-11-02T06:49:18.833Z,93.33
2016-11-02T06:50:31.928Z,93.52
2016-11-02T06:51:45.568Z,93.19
2016-11-02T06:52:58.685Z,93.66
2016-11-02T06:54:12.336Z,93.62
2016-11-02T06:55:26.014Z,93.43
2016-11-02T06:56:39.654Z,93.43
2016-11-02T06:57:53.049Z,93.43
2016-11-02T06:59:06.716Z,93.52
2016-11-02T07:00:19.824Z,93.62
2016-11-02T07:01:33.099Z,93.43
2016-11-02T07:02:46.205Z,93.43
2016-11-02T07:03:59.809Z,93.52
2016-11-02T07:05:13.567Z,93.52
2016-11-02T07:06:27.204Z,93.33
2016-11-02T07:07:40.559Z,93.24
2016-11-02T07:08:54.193Z,93.24
2016-11-02T07:10:07.840Z,93.33
2016-11-02T07:11:20.936Z,93.33
2016-11-02T07:12:34.489Z,93.24
2016-11-02T07:13:48.143Z,93.43
2016-11-02T07:15:01.715Z,93.04
2016-11-02T07:16:15.313Z,93.43
2016-11-02T07:17:28.611Z,93.52
2016-11-02T07:18:42.248Z,93.04
2016-11-02T07:19:55.330Z,93.19
2016-11-02T07:21:08.962Z,92.9
2016-11-02T07:22:22.037Z,92.85
2016-11-02T07:23:35.664Z,92.18
2016-11-02T07:24:49.353Z,92.47
2016-11-02T07:26:02.463Z,92.13
2016-11-02T07:27:16.090Z,91.55
2016-11-02T07:28:29.447Z,91.55
2016-11-02T07:29:43.132Z,90.88
2016-11-02T07:30:56.215Z,90.88
2016-11-02T07:32:09.892Z,90.68
2016-11-02T07:33:23.473Z,91.26
2016-11-02T07:34:37.078Z,90.88
2016-11-02T07:35:50.702Z,90.58
2016-11-02T07:37:04.292Z,90.78
2016-11-02T07:38:18.085Z,91.06
2016-11-02T07:39:31.687Z,91.36
2016-11-02T07:40:44.403Z,91.45
2016-11-02T07:41:57.983Z,91.06
2016-11-02T07:43:11.121Z,90.88
2016-11-02T07:44:24.700Z,91.45
2016-11-02T07:45:38.084Z,91.45
2016-11-02T07:46:51.644Z,91.45
2016-11-02T07:48:05.304Z,91.83
2016-11-02T07:49:18.418Z,91.83
2016-11-02T07:50:32.032Z,91.74
2016-11-02T07:51:45.057Z,91.74
2016-11-02T07:52:58.131Z,92.03
2016-11-02T07:54:11.776Z,91.83
2016-11-02T07:55:24.841Z,91.74
2016-11-02T07:56:37.453Z,91.79
2016-11-02T07:57:51.179Z,92.27
2016-11-02T07:59:04.768Z,91.89
2016-11-02T08:00:18.341Z,91.89
2016-11-02T08:01:31.960Z,92.27
2016-11-02T08:02:45.099Z,92.37
2016-11-02T08:03:58.215Z,91.69
2016-11-02T08:05:11.824Z,91.99
2016-11-02T08:06:24.851Z,91.64
2016-11-02T08:07:38.128Z,91.55
2016-11-02T08:08:51.740Z,91.55
2016-11-02T08:10:05.316Z,91.36
2016-11-02T08:11:18.906Z,91.36
2016-11-02T08:12:32.045Z,90.97
2016-11-02T08:13:45.654Z,90.88
2016-11-02T08:14:59.229Z,90.88
2016-11-02T08:16:12.209Z,90.58
2016-11-02T08:17:25.225Z,90.78
2016-11-02T08:18:38.863Z,90.68
2016-11-02T08:19:51.957Z,90.88
2016-11-02T08:21:05.621Z,90.1
2016-11-02T08:22:18.238Z,90.1
2016-11-02T08:23:31.307Z,90
2016-11-02T08:24:44.584Z,90.1
2016-11-02T08:25:58.178Z,89.91
2016-11-02T08:27:11.778Z,90
2016-11-02T08:28:25.364Z,90.2
2016-11-02T08:29:38.979Z,90.3
2016-11-02T08:30:52.640Z,89.72
2016-11-02T08:32:06.201Z,90.78
2016-11-02T08:33:19.867Z,90.48
2016-11-02T08:34:33.500Z,89.91
2016-11-02T08:35:46.549Z,90.1
2016-11-02T08:37:00.259Z,90.39
2016-11-02T08:38:13.962Z,90.39
2016-11-02T08:39:27.574Z,90.39
2016-11-02T08:40:40.656Z,91.26
2016-11-02T08:41:53.989Z,90.97
2016-11-02T08:43:05.981Z,91.45
2016-11-02T08:44:19.601Z,91.64
2016-11-02T08:45:32.651Z,91.55
2016-11-02T08:46:45.738Z,91.36
2016-11-02T08:47:58.774Z,91.83
2016-11-02T08:49:11.804Z,91.93
2016-11-02T08:50:25.372Z,91.93
2016-11-02T08:51:38.414Z,91.45
2016-11-02T08:52:52.024Z,91.45
2016-11-02T08:54:05.666Z,90.97
2016-11-02T08:55:18.748Z,91.26
2016-11-02T08:56:32.353Z,90.88
2016-11-02T08:57:44.382Z,90.97
2016-11-02T08:58:57.939Z,90.68
2016-11-02T09:00:11.544Z,90.39
2016-11-02T09:01:25.107Z,90.39
2016-11-02T09:02:38.202Z,90.3
2016-11-02T09:03:51.807Z,90.24
2016-11-02T09:05:05.382Z,89.67
2016-11-02T09:06:18.469Z,89.95
2016-11-02T09:07:32.016Z,90.05
2016-11-02T09:08:44.531Z,89.86
2016-11-02T09:09:57.562Z,89.76
2016-11-02T09:11:11.187Z,89.76
2016-11-02T09:12:24.476Z,89.57
2016-11-02T09:13:37.510Z,89.47
2016-11-02T09:14:51.141Z,89.47
2016-11-02T09:16:04.733Z,89.37
2016-11-02T09:17:18.823Z,89.18
2016-11-02T09:18:31.940Z,89.18
2016-11-02T09:19:44.991Z,89.37
2016-11-02T09:20:58.066Z,89.37
2016-11-02T09:22:11.587Z,89.86
2016-11-02T09:23:25.239Z,89.57
2016-11-02T09:24:38.858Z,89.51
2016-11-02T09:25:51.926Z,89.67
2016-11-02T09:27:05.528Z,90.15
2016-11-02T09:28:19.110Z,89.76
2016-11-02T09:29:32.699Z,89.81
2016-11-02T09:30:45.226Z,90.05
2016-11-02T09:31:58.857Z,89.95
2016-11-02T09:33:12.425Z,90.44
2016-11-02T09:34:25.756Z,90.53
2016-11-02T09:35:39.343Z,91.11
2016-11-02T09:36:52.349Z,91.3
2016-11-02T09:38:05.477Z,90.63
2016-11-02T09:39:19.027Z,90.44
2016-11-02T09:40:32.025Z,90.44
2016-11-02T09:41:44.567Z,90.53
2016-11-02T09:42:58.177Z,90.19
2016-11-02T09:44:11.864Z,90
2016-11-02T09:45:24.980Z,90.19
2016-11-02T09:46:38.569Z,89.76
2016-11-02T09:47:51.963Z,90.09
2016-11-02T09:49:05.003Z,90.05
2016-11-02T09:50:18.078Z,90.09
2016-11-02T09:51:31.613Z,90.09
2016-11-02T09:52:45.229Z,90
2016-11-02T09:53:58.290Z,90
2016-11-02T09:55:11.374Z,89.61
2016-11-02T09:56:24.938Z,90.09
2016-11-02T09:57:38.582Z,89.9
2016-11-02T09:58:52.156Z,89.9
2016-11-02T10:00:05.244Z,89.81
2016-11-02T10:01:18.312Z,90
2016-11-02T10:02:31.881Z,89.9
2016-11-02T10:03:45.538Z,90.19
2016-11-02T10:04:58.548Z,89.9
2016-11-02T10:06:12.156Z,89.81
2016-11-02T10:07:25.165Z,89.42
2016-11-02T10:08:38.797Z,89.9
2016-11-02T10:09:52.334Z,90.23
2016-11-02T10:11:05.943Z,89.9
2016-11-02T10:12:19.510Z,90.09
2016-11-02T10:13:32.547Z,90.29
2016-11-02T10:14:46.103Z,90.38
2016-11-02T10:15:59.742Z,90.58
2016-11-02T10:17:13.316Z,89.9
2016-11-02T10:18:26.332Z,90.05
2016-11-02T10:19:39.571Z,89.65
2016-11-02T10:20:53.175Z,89.47
2016-11-02T10:22:06.244Z,89.75
2016-11-02T10:23:19.807Z,89.47
2016-11-02T10:24:33.384Z,89.65
2016-11-02T10:25:46.938Z,89.65
2016-11-02T10:26:59.962Z,89.27
2016-11-02T10:28:13.572Z,90.14
2016-11-02T10:29:27.180Z,89.85
2016-11-02T10:30:40.731Z,89.65
2016-11-02T10:31:54.421Z,89.65
2016-11-02T10:33:07.991Z,89.75
2016-11-02T10:34:21.272Z,89.75
2016-11-02T10:35:34.799Z,89.56
2016-11-02T10:36:48.593Z,89.56
2016-11-02T10:38:02.168Z,89.56
2016-11-02T10:39:15.246Z,89.47
2016-11-02T10:40:28.825Z,89.79
2016-11-02T10:41:41.810Z,89.79
2016-11-02T10:42:54.862Z,89.61
2016-11-02T10:44:08.452Z,89.61
2016-11-02T10:45:22.037Z,89.89
2016-11-02T10:46:35.650Z,89.7
2016-11-02T10:47:49.303Z,89.79
2016-11-02T10:49:02.975Z,89.03
2016-11-02T10:50:15.663Z,89.7
2016-11-02T10:51:29.254Z,89.61
2016-11-02T10:52:42.884Z,89.41
2016-11-02T10:53:55.881Z,89.51
2016-11-02T10:55:09.463Z,88.54
2016-11-02T10:56:22.803Z,88.87
2016-11-02T10:57:35.922Z,88.87
2016-11-02T10:58:48.959Z,88.97
2016-11-02T11:00:01.955Z,88.68
2016-11-02T11:01:15.693Z,88.29
2016-11-02T11:02:29.329Z,88.39
2016-11-02T11:03:43.021Z,88.01
2016-11-02T11:04:56.623Z,88.49
2016-11-02T11:06:10.277Z,88.2
2016-11-02T11:07:22.733Z,88.24
2016-11-02T11:08:35.763Z,88.43
2016-11-02T11:09:49.489Z,88.43
2016-11-02T11:11:03.046Z,88.53
2016-11-02T11:12:16.612Z,88.34
2016-11-02T11:13:30.211Z,88.15
2016-11-02T11:14:43.788Z,87.76
2016-11-02T11:15:57.459Z,87.27
2016-11-02T11:17:10.712Z,87.03
2016-11-02T11:18:24.346Z,85.77
2016-11-02T11:19:37.946Z,85.68
2016-11-02T11:20:51.940Z,85.72
2016-11-02T11:22:05.543Z,86.25
2016-11-02T11:23:18.781Z,85.33
2016-11-02T11:24:32.402Z,85.72
2016-11-02T11:25:45.387Z,85.62
2016-11-02T11:26:58.413Z,84.94
2016-11-02T11:28:11.977Z,83.88
2016-11-02T11:29:25.615Z,83.78
2016-11-02T11:30:38.923Z,83.88
2016-11-02T11:31:51.476Z,83.49
2016-11-02T11:33:04.534Z,83.59
2016-11-02T11:34:17.554Z,82.66
2016-11-02T11:35:30.675Z,83.05
2016-11-02T11:36:44.549Z,82.95
2016-11-02T11:37:58.219Z,82.86
2016-11-02T11:39:11.386Z,82.66
2016-11-02T11:40:24.417Z,82.57
2016-11-02T11:41:37.992Z,82.57
2016-11-02T11:42:51.864Z,82.18
2016-11-02T11:44:04.931Z,81.89
2016-11-02T11:45:17.968Z,82.37
2016-11-02T11:46:31.022Z,82.28
2016-11-02T11:47:43.870Z,82.37
2016-11-02T11:48:57.521Z,82.8
2016-11-02T11:50:10.540Z,82.41
2016-11-02T11:51:24.179Z,82.51
2016-11-02T11:52:37.433Z,81.83
2016-11-02T11:53:51.026Z,81.73
2016-11-02T11:55:04.090Z,82.6
2016-11-02T11:56:17.121Z,82.03
2016-11-02T11:57:30.663Z,81.73
2016-11-02T11:58:44.546Z,81.25
2016-11-02T11:59:58.185Z,80.77
2016-11-02T12:01:11.859Z,80.67
2016-11-02T12:02:25.502Z,81.1
2016-11-02T12:03:38.508Z,80.57
2016-11-02T12:04:52.096Z,80.67
2016-11-02T12:06:04.925Z,80.19
2016-11-02T12:07:18.843Z,80.42
2016-11-02T12:08:32.435Z,80.32
2016-11-02T12:09:45.217Z,81
2016-11-02T12:10:58.765Z,80.42
2016-11-02T12:12:11.823Z,80.26
2016-11-02T12:13:24.843Z,79.88
2016-11-02T12:14:37.935Z,79.39
2016-11-02T12:15:51.864Z,80.46
2016-11-02T12:17:04.941Z,79.43
2016-11-02T12:18:18.771Z,79.24
2016-11-02T12:19:32.337Z,78.36
2016-11-02T12:20:45.942Z,78.94
2016-11-02T12:21:59.071Z,78.56
2016-11-02T12:23:12.744Z,78.85
2016-11-02T12:24:26.397Z,77.88
2016-11-02T12:25:40.049Z,78.17
2016-11-02T12:26:52.024Z,78.99
2016-11-02T12:28:05.577Z,78.31
2016-11-02T12:29:19.138Z,77.69
2016-11-02T12:30:32.695Z,77.82
2016-11-02T12:31:46.299Z,76.95
2016-11-02T12:32:59.373Z,77.92
2016-11-02T12:34:13.033Z,76.85
2016-11-02T12:35:26.104Z,77.14
2016-11-02T12:36:38.920Z,77.04
2016-11-02T12:37:52.526Z,76.65
2016-11-02T12:39:06.178Z,76.4
2016-11-02T12:40:19.843Z,76.4
2016-11-02T12:41:33.441Z,76.11
2016-11-02T12:42:47.065Z,76.31
2016-11-02T12:44:00.664Z,76.11
2016-11-02T12:45:13.701Z,76.31
2016-11-02T12:46:26.833Z,75.43
2016-11-02T12:47:40.444Z,75.85
2016-11-02T12:48:54.087Z,74.98
2016-11-02T12:50:07.779Z,75.18
2016-11-02T12:51:21.311Z,74.82
2016-11-02T12:52:34.392Z,74.05
2016-11-02T12:53:47.959Z,73.95
2016-11-02T12:55:01.558Z,73.66
2016-11-02T12:56:15.148Z,73.91
2016-11-02T12:57:27.881Z,73.08
2016-11-02T12:58:41.473Z,72.59
2016-11-02T12:59:54.346Z,72.11
2016-11-02T13:01:07.971Z,72.39
2016-11-02T13:02:21.597Z,72.59
2016-11-02T13:03:35.155Z,72.59
2016-11-02T13:04:48.990Z,72.2
2016-11-02T13:06:02.553Z,72.75
2016-11-02T13:07:15.612Z,72.45
2016-11-02T13:08:28.666Z,72.45
2016-11-02T13:09:41.166Z,72.36
2016-11-02T13:10:54.510Z,72.52
2016-11-02T13:12:08.138Z,71.74
2016-11-02T13:13:21.774Z,71.58
2016-11-02T13:14:34.872Z,71.72
2016-11-02T13:15:48.501Z,71.81
2016-11-02T13:17:02.218Z,71.52
2016-11-02T13:18:16.055Z,70.36
2016-11-02T13:19:29.241Z,71.03
2016-11-02T13:20:42.891Z,71.58
2016-11-02T13:21:55.410Z,70.61
2016-11-02T13:23:08.447Z,70.06
2016-11-02T13:24:22.400Z,69.77
2016-11-02T13:25:35.536Z,69.13
2016-11-02T13:26:49.335Z,69.22
2016-11-02T13:28:02.431Z,68.96
2016-11-02T13:29:16.064Z,67.9
2016-11-02T13:30:28.601Z,67.99
2016-11-02T13:31:42.149Z,68.19
2016-11-02T13:32:55.819Z,67.9
2016-11-02T13:34:08.416Z,67.99
2016-11-02T13:35:21.832Z,67.54
2016-11-02T13:36:35.463Z,67.54
2016-11-02T13:37:48.586Z,67.73
2016-11-02T13:39:01.618Z,67.05
2016-11-02T13:40:15.255Z,66.96
2016-11-02T13:41:28.765Z,66.56
2016-11-02T13:42:41.875Z,66.86
2016-11-02T13:43:54.973Z,67.25
2016-11-02T13:45:08.587Z,67.15
2016-11-02T13:46:22.355Z,67.05
2016-11-02T13:47:35.849Z,66.96
2016-11-02T13:48:49.418Z,67.83
2016-11-02T13:50:03.048Z,67.93
2016-11-02T13:51:16.628Z,68.22
2016-11-02T13:52:30.255Z,67.93
2016-11-02T13:53:43.804Z,68.02
2016-11-02T13:54:56.875Z,67.93
2016-11-02T13:56:10.515Z,68.22
2016-11-02T13:57:24.176Z,67.83
2016-11-02T13:58:37.715Z,67.83
2016-11-02T13:59:51.216Z,67.96
2016-11-02T14:01:04.927Z,67.28
2016-11-02T14:02:18.555Z,67.15
2016-11-02T14:03:32.199Z,67.25
2016-11-02T14:04:45.776Z,67.05
2016-11-02T14:05:59.067Z,67.7
2016-11-02T14:07:12.141Z,67.99
2016-11-02T14:08:25.726Z,67.9
2016-11-02T14:09:39.309Z,67.7
2016-11-02T14:10:51.819Z,68.19
2016-11-02T14:12:05.395Z,67.9
2016-11-02T14:13:19.292Z,68.9
2016-11-02T14:14:32.897Z,69.06
2016-11-02T14:15:46.302Z,68.77
2016-11-02T14:16:59.944Z,68.67
2016-11-02T14:18:13.487Z,69.06
2016-11-02T14:19:27.162Z,67.93
2016-11-02T14:20:40.715Z,66.89
2016-11-02T14:21:53.452Z,65.33
2016-11-02T14:23:07.040Z,65.36
2016-11-02T14:24:20.616Z,64.81
2016-11-02T14:25:34.276Z,64.32
2016-11-02T14:26:47.915Z,64.03
2016-11-02T14:28:01.522Z,63.64
2016-11-02T14:29:15.451Z,62.12
2016-11-02T14:30:29.058Z,61.36
2016-11-02T14:31:42.739Z,61.4
2016-11-02T14:32:56.339Z,61.52
2016-11-02T14:34:09.981Z,61.33
2016-11-02T14:35:23.557Z,60.7
2016-11-02T14:36:37.256Z,60.02
2016-11-02T14:37:50.889Z,59.04
2016-11-02T14:39:04.467Z,58.33
2016-11-02T14:40:18.057Z,59.18
2016-11-02T14:41:31.667Z,59.96
2016-11-02T14:42:45.325Z,59.47
2016-11-02T14:43:58.895Z,59.18
2016-11-02T14:45:12.531Z,58.98
2016-11-02T14:46:26.116Z,58.79
2016-11-02T14:47:39.739Z,59.38
2016-11-02T14:48:53.349Z,59.54
2016-11-02T14:50:06.959Z,59.86
2016-11-02T14:51:20.570Z,60.32
2016-11-02T14:52:34.170Z,60.49
2016-11-02T14:53:47.997Z,60.97
2016-11-02T14:55:01.673Z,59.9
2016-11-02T14:56:15.365Z,58.95
2016-11-02T14:57:29.051Z,57.93
2016-11-02T14:58:42.689Z,56.4
2016-11-02T14:59:55.780Z,55.65
2016-11-02T15:01:09.384Z,55.8
2016-11-02T15:02:23.010Z,55.43
2016-11-02T15:03:36.626Z,55.53
2016-11-02T15:04:49.682Z,55.31
2016-11-02T15:06:03.137Z,55.51
2016-11-02T15:07:16.732Z,55.31
2016-11-02T15:08:30.360Z,55.53
2016-11-02T15:09:43.886Z,55.31
2016-11-02T15:10:57.456Z,55.24
2016-11-02T15:12:11.108Z,55.24
2016-11-02T15:13:24.747Z,55.04
2016-11-02T15:14:38.383Z,55.46
2016-11-02T15:15:52.311Z,55.33
2016-11-02T15:17:06.063Z,54.87
2016-11-02T15:18:19.703Z,53.86
2016-11-02T15:19:33.638Z,54.58
2016-11-02T15:20:47.298Z,53.33
2016-11-02T15:22:00.972Z,53.03
2016-11-02T15:23:14.864Z,52.55
2016-11-02T15:24:28.452Z,52.86
2016-11-02T15:25:41.975Z,52.82
2016-11-02T15:26:55.539Z,52.33
2016-11-02T15:28:09.137Z,53.11
2016-11-02T15:29:22.689Z,53.85
2016-11-02T15:30:36.357Z,55.07
2016-11-02T15:31:49.919Z,55.33
2016-11-02T15:33:03.246Z,55.9
2016-11-02T15:34:16.823Z,55.01
2016-11-02T15:35:30.461Z,54.09
2016-11-02T15:36:44.132Z,53.72
2016-11-02T15:37:57.437Z,54.31
2016-11-02T15:39:11.054Z,54.04
2016-11-02T15:40:24.679Z,54.7
2016-11-02T15:41:38.263Z,55.8
2016-11-02T15:42:51.884Z,56.19
2016-11-02T15:44:05.483Z,56.26
2016-11-02T15:45:19.296Z,56.16
2016-11-02T15:46:32.391Z,56.26
2016-11-02T15:47:46.229Z,56.52
2016-11-02T15:48:59.846Z,56.75
2016-11-02T15:50:12.967Z,57.6
2016-11-02T15:51:26.318Z,58.03